Time;durP1;ratioP1;P1;durP2;ratioP2;P2;SDS_P1;SDS_P2;PMS_P1;PMS_P2;Temp;Humidity;BMP_temperature;BMP_pressure;BME280_temperature;BME280_humidity;BME280_pressure;Samples;Min_cycle;Max_cycle;Signal;HPM_P1;HPM_P2
2023/01/13 00:00:48;;;;;;;29.08;3.47;;;;;;;;;;5036448;28;20091;-71
2023/01/13 00:03:14;;;;;;;29.33;4.07;;;;;;;;;;5053231;28;20076;-71
2023/01/13 00:05:40;;;;;;;24.13;3.42;;;;;;;;;;5052557;28;20057;-71
2023/01/13 00:08:07;;;;;;;33.28;4.13;;;;;;;;;;5036414;28;20086;-71
2023/01/13 00:10:33;;;;;;;30.40;4.05;;;;;;;;;;5052618;28;20037;-71
2023/01/13 00:12:59;;;;;;;32.15;4.40;;;;;;;;;;5054324;28;20446;-71
2023/01/13 00:15:25;;;;;;;31.10;4.50;;;;;;;;;;5036041;28;20053;-71
2023/01/13 00:17:52;;;;;;;28.08;4.82;;;;;;;;;;5054463;28;20497;-71
2023/01/13 00:20:18;;;;;;;28.67;4.43;;;;;;;;;;5053398;28;20471;-71
2023/01/13 00:22:44;;;;;;;30.05;3.97;;;;;;;;;;5052566;28;20048;-71
2023/01/13 00:25:10;;;;;;;37.50;5.10;;;;;;;;;;5052985;28;20394;-71
2023/01/13 00:27:36;;;;;;;30.63;4.88;;;;;;;;;;5054020;28;20497;-71
2023/01/13 00:30:02;;;;;;;29.25;5.45;;;;;;;;;;5052827;28;20044;-71
2023/01/13 00:32:29;;;;;;;37.88;5.20;;;;;;;;;;5085589;28;20076;-71
2023/01/13 00:34:55;;;;;;;36.65;4.75;;;;;;;;;;5053385;28;20063;-71
2023/01/13 00:37:22;;;;;;;38.95;5.35;;;;;;;;;;5053896;28;20421;-71
2023/01/13 00:39:48;;;;;;;31.65;4.85;;;;;;;;;;5052080;28;20044;-71
2023/01/13 00:44:59;;;;;;;39.22;5.32;;;;;;;;;;5052743;28;20482;-71
2023/01/13 00:47:25;;;;;;;28.45;5.50;;;;;;;;;;5052403;28;20462;-71
2023/01/13 00:49:51;;;;;;;31.30;4.10;;;;;;;;;;5052092;28;20482;-71
2023/01/13 00:52:17;;;;;;;35.70;4.85;;;;;;;;;;5051976;28;20047;-71
2023/01/13 00:54:43;;;;;;;29.05;4.38;;;;;;;;;;5053097;28;20037;-71
2023/01/13 00:57:09;;;;;;;36.45;4.68;;;;;;;;;;5052101;28;20072;-71
2023/01/13 00:59:35;;;;;;;28.77;3.97;;;;;;;;;;5052015;28;20509;-71
2023/01/13 01:02:01;;;;;;;30.05;4.57;;;;;;;;;;5035167;28;20076;-71
2023/01/13 01:04:27;;;;;;;30.58;4.32;;;;;;;;;;5052258;28;20090;-71
2023/01/13 01:06:53;;;;;;;27.20;3.83;;;;;;;;;;5052100;28;20045;-71
2023/01/13 01:09:19;;;;;;;38.70;5.00;;;;;;;;;;5035192;28;20119;-71
2023/01/13 01:11:45;;;;;;;31.58;4.70;;;;;;;;;;5051361;28;20052;-71
2023/01/13 01:14:13;;;;;;;32.00;4.47;;;;;;;;;;5051930;28;20086;-71
2023/01/13 01:16:39;;;;;;;26.98;3.70;;;;;;;;;;5051494;28;20087;-71
2023/01/13 01:19:06;;;;;;;36.38;4.45;;;;;;;;;;5051738;28;20087;-71
2023/01/13 01:21:32;;;;;;;32.42;4.38;;;;;;;;;;5052571;28;20056;-71
2023/01/13 01:24:00;;;;;;;28.33;3.53;;;;;;;;;;5052886;28;20510;-71
2023/01/13 01:26:27;;;;;;;26.02;4.00;;;;;;;;;;5051710;28;20037;-71
2023/01/13 01:28:53;;;;;;;25.30;4.90;;;;;;;;;;5051365;28;20041;-71
2023/01/13 01:31:21;;;;;;;34.92;4.40;;;;;;;;;;5034918;28;20154;-71
2023/01/13 01:33:47;;;;;;;25.50;3.63;;;;;;;;;;5052102;28;20062;-71
2023/01/13 01:36:14;;;;;;;29.27;4.78;;;;;;;;;;5051725;28;20037;-71
2023/01/13 01:38:40;;;;;;;38.55;4.53;;;;;;;;;;5050881;28;20037;-72
2023/01/13 01:41:06;;;;;;;25.48;3.70;;;;;;;;;;5051235;28;20052;-72
2023/01/13 01:44:06;;;;;;;28.60;4.32;;;;;;;;;;5051427;28;20509;-71
2023/01/13 01:46:37;;;;;;;26.42;4.70;;;;;;;;;;5050775;28;20049;-71
2023/01/13 01:49:03;;;;;;;29.98;3.95;;;;;;;;;;5051798;28;20048;-71
2023/01/13 01:51:31;;;;;;;31.75;4.20;;;;;;;;;;5051082;28;20051;-71
2023/01/13 01:53:58;;;;;;;28.17;5.00;;;;;;;;;;5050576;28;20098;-71
2023/01/13 01:56:24;;;;;;;32.72;3.83;;;;;;;;;;5051446;28;20482;-71
2023/01/13 01:58:51;;;;;;;35.40;4.70;;;;;;;;;;5050547;28;20118;-71
2023/01/13 02:01:18;;;;;;;27.75;4.07;;;;;;;;;;5051137;28;20425;-71
2023/01/13 02:03:46;;;;;;;27.88;4.50;;;;;;;;;;5050621;28;20512;-71
2023/01/13 02:06:13;;;;;;;29.38;4.88;;;;;;;;;;5050901;28;20409;-71
2023/01/13 02:08:39;;;;;;;30.30;5.15;;;;;;;;;;5034240;28;20563;-71
2023/01/13 02:12:28;;;;;;;29.48;3.80;;;;;;;;;;5050942;28;20075;-71
2023/01/13 02:13:52;;;;;;;30.00;3.78;;;;;;;;;;5050741;28;20501;-71
2023/01/13 02:16:22;;;;;;;27.30;4.15;;;;;;;;;;5050875;28;20068;-71
2023/01/13 02:18:48;;;;;;;33.45;5.03;;;;;;;;;;5050299;28;20128;-71
2023/01/13 02:21:26;;;;;;;23.92;3.72;;;;;;;;;;5050861;28;20048;-71
2023/01/13 02:26:58;;;;;;;20.75;3.47;;;;;;;;;;5050315;28;20041;-71
2023/01/13 02:32:39;;;;;;;25.52;3.63;;;;;;;;;;5039618;28;20402;-71
2023/01/13 02:35:20;;;;;;;35.30;4.63;;;;;;;;;;5050290;28;20073;-71
2023/01/13 02:37:48;;;;;;;28.08;4.40;;;;;;;;;;5050608;28;20044;-71
2023/01/13 02:40:32;;;;;;;31.08;3.75;;;;;;;;;;5050564;28;20041;-71
2023/01/13 02:45:51;;;;;;;26.85;3.55;;;;;;;;;;5037075;28;20049;-71
2023/01/13 02:48:20;;;;;;;33.80;4.45;;;;;;;;;;5051626;28;20041;-71
2023/01/13 02:50:53;;;;;;;29.88;4.20;;;;;;;;;;5033214;28;20076;-71
2023/01/13 02:53:22;;;;;;;22.50;4.05;;;;;;;;;;5033754;28;20047;-71
2023/01/13 02:55:51;;;;;;;25.83;4.38;;;;;;;;;;5049977;28;20041;-71
2023/01/13 02:58:18;;;;;;;24.23;3.70;;;;;;;;;;5051176;28;20041;-71
2023/01/13 03:00:45;;;;;;;28.27;3.95;;;;;;;;;;5054005;28;20516;-71
2023/01/13 03:03:11;;;;;;;21.45;3.47;;;;;;;;;;5053393;28;20034;-71
2023/01/13 03:05:37;;;;;;;33.45;4.22;;;;;;;;;;5036848;28;20049;-71
2023/01/13 03:08:22;;;;;;;33.63;3.90;;;;;;;;;;5053717;28;20040;-72
2023/01/13 03:11:06;;;;;;;36.05;5.13;;;;;;;;;;5054079;28;20041;-71
2023/01/13 03:13:51;;;;;;;24.58;4.07;;;;;;;;;;5041176;28;20062;-71
2023/01/13 03:16:20;;;;;;;30.55;4.70;;;;;;;;;;5054331;28;20487;-71
2023/01/13 03:18:52;;;;;;;30.08;4.43;;;;;;;;;;5053954;28;20045;-71
2023/01/13 03:21:21;;;;;;;33.90;5.10;;;;;;;;;;5037228;28;20052;-71
2023/01/13 03:24:06;;;;;;;32.67;4.75;;;;;;;;;;5053490;28;20395;-71
2023/01/13 03:26:35;;;;;;;26.30;4.70;;;;;;;;;;5054050;28;20040;-71
2023/01/13 03:29:06;;;;;;;36.65;5.10;;;;;;;;;;5036842;28;20045;-71
2023/01/13 03:31:34;;;;;;;35.25;4.93;;;;;;;;;;5037001;28;20072;-71
2023/01/13 03:34:21;;;;;;;29.20;4.57;;;;;;;;;;5054763;28;20044;-71
2023/01/13 03:36:48;;;;;;;34.25;4.78;;;;;;;;;;5053541;28;20486;-71
2023/01/13 03:39:17;;;;;;;34.63;4.20;;;;;;;;;;5053694;28;20036;-71
2023/01/13 03:41:51;;;;;;;32.85;4.15;;;;;;;;;;5036877;28;20041;-71
2023/01/13 03:44:30;;;;;;;30.85;4.88;;;;;;;;;;5053540;28;20041;-71
2023/01/13 03:46:57;;;;;;;30.38;4.07;;;;;;;;;;5053049;28;20053;-72
2023/01/13 03:49:25;;;;;;;44.97;6.32;;;;;;;;;;5052432;28;20048;-71
2023/01/13 03:51:55;;;;;;;30.75;4.00;;;;;;;;;;5052755;28;20077;-71
2023/01/13 03:54:22;;;;;;;30.52;4.20;;;;;;;;;;5053394;28;20044;-71
2023/01/13 03:56:51;;;;;;;28.15;4.05;;;;;;;;;;5053447;28;20088;-71
2023/01/13 03:59:20;;;;;;;31.55;5.57;;;;;;;;;;5054706;28;20513;-71
2023/01/13 04:01:46;;;;;;;29.80;4.63;;;;;;;;;;5053213;28;20084;-71
2023/01/13 04:04:16;;;;;;;34.22;4.28;;;;;;;;;;5052647;28;20037;-72
2023/01/13 04:07:06;;;;;;;34.03;4.32;;;;;;;;;;5053040;28;20073;-71
2023/01/13 04:09:38;;;;;;;30.05;4.65;;;;;;;;;;5052731;28;20048;-71
2023/01/13 04:12:10;;;;;;;29.15;4.05;;;;;;;;;;5053838;28;20033;-71
2023/01/13 04:14:37;;;;;;;23.05;4.60;;;;;;;;;;5054356;28;20509;-71
2023/01/13 04:17:04;;;;;;;30.48;4.68;;;;;;;;;;5053814;28;20048;-71
2023/01/13 04:19:31;;;;;;;28.00;4.07;;;;;;;;;;5054562;28;20462;-71
2023/01/13 04:21:57;;;;;;;30.65;4.38;;;;;;;;;;5035824;28;20418;-71
2023/01/13 04:24:24;;;;;;;18.38;4.10;;;;;;;;;;5052735;28;20072;-71
2023/01/13 04:26:50;;;;;;;32.22;4.85;;;;;;;;;;5052563;28;20044;-71
2023/01/13 04:29:16;;;;;;;30.38;4.55;;;;;;;;;;5052268;28;20124;-71
2023/01/13 04:31:42;;;;;;;37.55;5.13;;;;;;;;;;5036079;28;20044;-71
2023/01/13 04:34:09;;;;;;;29.65;4.68;;;;;;;;;;5052005;28;20041;-71
2023/01/13 04:36:35;;;;;;;30.27;4.32;;;;;;;;;;5052319;28;20056;-71
2023/01/13 04:39:02;;;;;;;37.65;4.65;;;;;;;;;;5053533;28;20037;-71
2023/01/13 04:41:56;;;;;;;26.23;3.88;;;;;;;;;;5052386;28;20085;-71
2023/01/13 04:44:14;;;;;;;34.47;3.88;;;;;;;;;;5051810;28;20103;-71
2023/01/13 04:46:40;;;;;;;39.25;4.57;;;;;;;;;;5052605;28;20478;-71
2023/01/13 04:49:06;;;;;;;33.70;5.20;;;;;;;;;;5053208;28;20494;-71
2023/01/13 04:51:32;;;;;;;36.85;4.50;;;;;;;;;;5035800;28;20517;-71
2023/01/13 04:53:58;;;;;;;31.75;4.13;;;;;;;;;;5053482;28;20099;-71
2023/01/13 04:56:25;;;;;;;28.60;4.13;;;;;;;;;;5053656;28;20124;-71
2023/01/13 04:58:51;;;;;;;29.58;4.30;;;;;;;;;;5052162;28;20036;-71
2023/01/13 05:01:17;;;;;;;30.50;4.80;;;;;;;;;;5047869;28;20079;-71
2023/01/13 05:03:43;;;;;;;34.30;4.32;;;;;;;;;;5041353;28;20041;-71
2023/01/13 05:06:09;;;;;;;28.70;4.22;;;;;;;;;;5051146;28;20067;-71
2023/01/13 05:08:35;;;;;;;32.85;5.57;;;;;;;;;;5051939;28;20037;-71
2023/01/13 05:16:58;;;;;;;30.02;3.88;;;;;;;;;;5051522;28;20048;-71
2023/01/13 05:19:16;;;;;;;32.95;4.70;;;;;;;;;;5051714;28;20782;-71
2023/01/13 05:27:11;;;;;;;27.25;3.92;;;;;;;;;;5039335;28;20040;-71
2023/01/13 05:29:37;;;;;;;27.73;4.20;;;;;;;;;;5053426;28;20045;-71
2023/01/13 05:32:06;;;;;;;24.63;3.60;;;;;;;;;;5051338;28;20494;-71
2023/01/13 05:34:32;;;;;;;29.23;3.50;;;;;;;;;;5051826;28;20490;-71
2023/01/13 05:36:58;;;;;;;30.17;3.88;;;;;;;;;;5051671;28;20473;-71
2023/01/13 05:39:24;;;;;;;29.85;4.88;;;;;;;;;;5051245;28;20042;-72
2023/01/13 05:44:35;;;;;;;21.45;3.35;;;;;;;;;;5051578;28;20044;-71
2023/01/13 05:47:01;;;;;;;29.48;4.43;;;;;;;;;;5034618;28;20041;-72
2023/01/13 05:49:27;;;;;;;18.55;3.60;;;;;;;;;;5051261;28;20041;-71
2023/01/13 05:51:53;;;;;;;22.30;3.42;;;;;;;;;;5051151;28;20115;-72
2023/01/13 05:54:19;;;;;;;20.45;3.70;;;;;;;;;;5050602;28;20044;-72
2023/01/13 05:56:45;;;;;;;24.67;3.67;;;;;;;;;;5051235;28;20045;-72
2023/01/13 05:59:11;;;;;;;23.25;3.53;;;;;;;;;;5034070;28;20045;-72
2023/01/13 06:01:37;;;;;;;21.67;3.78;;;;;;;;;;5051246;28;20080;-72
2023/01/13 06:04:03;;;;;;;23.20;2.53;;;;;;;;;;5051265;28;20036;-71
2023/01/13 06:06:29;;;;;;;23.58;3.45;;;;;;;;;;5050521;28;20072;-72
2023/01/13 06:08:55;;;;;;;24.20;2.90;;;;;;;;;;5034622;28;20536;-72
2023/01/13 06:11:21;;;;;;;13.63;2.47;;;;;;;;;;5050602;28;20048;-71
2023/01/13 06:13:47;;;;;;;19.48;2.45;;;;;;;;;;5052060;28;20055;-71
2023/01/13 06:16:13;;;;;;;21.85;2.78;;;;;;;;;;5050609;28;20110;-71
2023/01/13 06:18:39;;;;;;;16.13;2.30;;;;;;;;;;5052116;28;20044;-71
2023/01/13 06:21:05;;;;;;;21.58;2.85;;;;;;;;;;5050553;28;20045;-72
2023/01/13 06:23:34;;;;;;;19.80;2.75;;;;;;;;;;5050530;28;20056;-71
2023/01/13 06:26:00;;;;;;;15.65;2.10;;;;;;;;;;5052107;28;20068;-71
2023/01/13 06:28:26;;;;;;;21.52;3.10;;;;;;;;;;5050366;28;20047;-72
2023/01/13 06:30:55;;;;;;;19.77;2.85;;;;;;;;;;5050741;28;20041;-71
2023/01/13 06:33:24;;;;;;;12.07;2.25;;;;;;;;;;5033984;28;20120;-71
2023/01/13 06:35:53;;;;;;;16.90;2.55;;;;;;;;;;5054774;28;20037;-71
2023/01/13 06:38:20;;;;;;;16.17;2.40;;;;;;;;;;5055589;28;20041;-72
2023/01/13 06:40:46;;;;;;;18.30;2.55;;;;;;;;;;5054518;28;20095;-71
2023/01/13 06:43:16;;;;;;;21.73;3.30;;;;;;;;;;5055391;28;20045;-71
2023/01/13 06:45:44;;;;;;;18.20;2.88;;;;;;;;;;5054960;28;20490;-71
2023/01/13 06:48:10;;;;;;;22.75;2.30;;;;;;;;;;5054109;28;20060;-72
2023/01/13 06:50:36;;;;;;;16.42;2.22;;;;;;;;;;5054436;28;20048;-71
2023/01/13 06:53:02;;;;;;;21.33;2.78;;;;;;;;;;5038177;28;20041;-71
2023/01/13 06:55:28;;;;;;;20.00;2.42;;;;;;;;;;5054244;28;20493;-71
2023/01/13 06:57:55;;;;;;;20.10;3.33;;;;;;;;;;5054382;28;20359;-71
2023/01/13 07:00:22;;;;;;;17.33;2.45;;;;;;;;;;5054039;28;20041;-71
2023/01/13 07:02:48;;;;;;;27.38;2.95;;;;;;;;;;5054197;28;20041;-72
2023/01/13 07:05:15;;;;;;;18.80;2.90;;;;;;;;;;5055056;28;20049;-75
2023/01/13 07:07:42;;;;;;;20.55;3.60;;;;;;;;;;5037590;28;20042;-71
2023/01/13 07:10:10;;;;;;;18.88;2.50;;;;;;;;;;5040290;28;20029;-71
2023/01/13 07:15:26;;;;;;;21.52;3.40;;;;;;;;;;5041794;28;20048;-71
2023/01/13 07:17:52;;;;;;;21.90;2.90;;;;;;;;;;5037385;28;20049;-71
2023/01/13 07:20:18;;;;;;;23.25;3.05;;;;;;;;;;5053581;28;20037;-71
2023/01/13 07:22:44;;;;;;;22.50;3.55;;;;;;;;;;5053932;28;20053;-71
2023/01/13 07:25:11;;;;;;;27.05;3.65;;;;;;;;;;5053734;28;20087;-71
2023/01/13 07:27:38;;;;;;;21.10;2.70;;;;;;;;;;5053438;28;20075;-71
2023/01/13 07:30:05;;;;;;;28.30;3.58;;;;;;;;;;5037462;28;20120;-71
2023/01/13 07:32:32;;;;;;;27.67;3.22;;;;;;;;;;5036768;28;20076;-71
2023/01/13 07:35:03;;;;;;;25.38;3.63;;;;;;;;;;5036970;28;20048;-71
2023/01/13 07:37:29;;;;;;;23.15;3.50;;;;;;;;;;5054704;28;20106;-71
2023/01/13 07:39:55;;;;;;;25.30;3.53;;;;;;;;;;5054884;28;20044;-71
2023/01/13 07:45:06;;;;;;;28.15;3.55;;;;;;;;;;5053747;28;20112;-71
2023/01/13 07:47:32;;;;;;;26.02;4.53;;;;;;;;;;5053141;28;20076;-71
2023/01/13 07:49:58;;;;;;;31.58;4.50;;;;;;;;;;5036823;28;20048;-71
2023/01/13 07:52:24;;;;;;;31.33;4.32;;;;;;;;;;5036397;28;20128;-72
2023/01/13 07:54:51;;;;;;;24.35;3.45;;;;;;;;;;5036841;28;20075;-71
2023/01/13 07:57:17;;;;;;;32.50;3.55;;;;;;;;;;5053024;28;20067;-71
2023/01/13 07:59:43;;;;;;;29.33;3.95;;;;;;;;;;5053280;28;20097;-71
2023/01/13 08:02:11;;;;;;;24.48;3.63;;;;;;;;;;5053366;28;20049;-71
2023/01/13 08:04:38;;;;;;;29.10;4.07;;;;;;;;;;5052524;28;20041;-71
2023/01/13 08:07:04;;;;;;;31.80;4.07;;;;;;;;;;5053311;28;20056;-71
2023/01/13 08:09:30;;;;;;;22.92;3.20;;;;;;;;;;5054006;28;20505;-71
2023/01/13 08:14:41;;;;;;;24.63;4.30;;;;;;;;;;5052462;28;20049;-71
2023/01/13 08:17:07;;;;;;;23.40;3.38;;;;;;;;;;5052983;28;20128;-71
2023/01/13 08:19:33;;;;;;;25.35;4.47;;;;;;;;;;5052746;28;20041;-71
2023/01/13 08:21:59;;;;;;;20.00;2.92;;;;;;;;;;5052849;28;20041;-71
2023/01/13 08:24:25;;;;;;;23.05;4.00;;;;;;;;;;5035794;28;20052;-71
2023/01/13 08:26:52;;;;;;;23.38;3.50;;;;;;;;;;5052936;28;20037;-71
2023/01/13 08:29:18;;;;;;;23.05;3.42;;;;;;;;;;5036402;28;20040;-71
2023/01/13 08:31:44;;;;;;;25.40;3.42;;;;;;;;;;5052242;28;20106;-71
2023/01/13 08:34:10;;;;;;;28.75;3.95;;;;;;;;;;5052590;28;20047;-71
2023/01/13 08:36:36;;;;;;;26.33;3.92;;;;;;;;;;5052543;28;20502;-71
2023/01/13 08:39:02;;;;;;;24.50;4.45;;;;;;;;;;5052814;28;20051;-71
2023/01/13 08:44:13;;;;;;;19.10;3.28;;;;;;;;;;5040830;28;20033;-71
2023/01/13 08:46:39;;;;;;;22.45;4.25;;;;;;;;;;5052283;28;20198;-71
2023/01/13 08:49:05;;;;;;;20.05;3.30;;;;;;;;;;5052206;28;20036;-71
2023/01/13 08:51:31;;;;;;;25.23;3.42;;;;;;;;;;5051892;28;20090;-71
2023/01/13 08:53:57;;;;;;;22.05;3.42;;;;;;;;;;5052190;28;20052;-71
2023/01/13 08:56:23;;;;;;;21.13;3.63;;;;;;;;;;5035162;28;20037;-71
2023/01/13 08:58:49;;;;;;;23.75;3.25;;;;;;;;;;5052516;28;20083;-71
2023/01/13 09:01:19;;;;;;;22.33;3.53;;;;;;;;;;5035800;28;20482;-71
2023/01/13 09:03:45;;;;;;;26.35;3.75;;;;;;;;;;5052067;28;20405;-71
2023/01/13 09:06:11;;;;;;;21.80;3.50;;;;;;;;;;5051631;28;20048;-71
2023/01/13 09:08:37;;;;;;;28.67;3.50;;;;;;;;;;5019099;28;20045;-71
2023/01/13 09:13:10;;;;;;;24.15;3.38;;;;;;;;;;5052024;28;20036;-71
2023/01/13 09:13:49;;;;;;;23.60;3.63;;;;;;;;;;5051763;28;20041;-71
2023/01/13 09:16:15;;;;;;;26.15;3.38;;;;;;;;;;5035361;28;20041;-71
2023/01/13 09:18:41;;;;;;;29.05;3.65;;;;;;;;;;5051653;28;20449;-71
2023/01/13 09:21:11;;;;;;;22.92;3.17;;;;;;;;;;5051871;28;20515;-71
2023/01/13 09:23:37;;;;;;;22.75;3.35;;;;;;;;;;5035001;28;20045;-71
2023/01/13 09:26:03;;;;;;;25.73;3.30;;;;;;;;;;5051523;28;20386;-71
2023/01/13 09:28:29;;;;;;;28.77;4.32;;;;;;;;;;5051085;28;20040;-71
2023/01/13 09:30:59;;;;;;;22.65;3.20;;;;;;;;;;5051571;28;20041;-71
2023/01/13 09:36:10;;;;;;;22.42;2.97;;;;;;;;;;5052984;28;20045;-71
2023/01/13 09:38:36;;;;;;;25.40;3.65;;;;;;;;;;5034401;28;20072;-71
2023/01/13 09:43:52;;;;;;;25.17;3.30;;;;;;;;;;5051667;28;20486;-71
2023/01/13 09:43:52;;;;;;;18.88;3.20;;;;;;;;;;5050779;28;20120;-71
2023/01/13 09:49:19;;;;;;;23.73;3.15;;;;;;;;;;5051387;28;20044;-71
2023/01/13 09:51:48;;;;;;;18.52;2.95;;;;;;;;;;5036391;28;20051;-71
2023/01/13 09:54:25;;;;;;;19.10;3.60;;;;;;;;;;5071348;28;20036;-71
2023/01/13 09:56:51;;;;;;;23.67;3.33;;;;;;;;;;5070668;28;20081;-71
2023/01/13 09:59:18;;;;;;;25.35;3.78;;;;;;;;;;5057316;28;20043;-71
2023/01/13 10:01:58;;;;;;;25.23;3.58;;;;;;;;;;5050759;28;20045;-71
2023/01/13 10:04:24;;;;;;;19.88;3.28;;;;;;;;;;5050959;28;20056;-71
2023/01/13 10:06:55;;;;;;;19.13;3.90;;;;;;;;;;5051680;28;20401;-72
2023/01/13 10:09:25;;;;;;;20.80;3.20;;;;;;;;;;5050471;28;20095;-71
2023/01/13 10:14:40;;;;;;;27.77;3.70;;;;;;;;;;5050391;28;20048;-72
2023/01/13 10:17:11;;;;;;;18.73;3.42;;;;;;;;;;5050981;28;20124;-71
2023/01/13 10:19:40;;;;;;;18.90;3.25;;;;;;;;;;5033718;28;20049;-72
2023/01/13 10:22:30;;;;;;;19.90;3.03;;;;;;;;;;5050866;28;20043;-71
2023/01/13 10:24:56;;;;;;;20.75;2.92;;;;;;;;;;5051628;28;20033;-71
2023/01/13 10:27:25;;;;;;;16.63;2.65;;;;;;;;;;5050775;28;20041;-72
2023/01/13 10:29:51;;;;;;;19.10;2.70;;;;;;;;;;5033563;28;20041;-71
2023/01/13 10:32:17;;;;;;;23.45;2.72;;;;;;;;;;5050613;28;20091;-71
2023/01/13 10:34:51;;;;;;;15.93;2.90;;;;;;;;;;5050324;28;20041;-72
2023/01/13 10:37:27;;;;;;;18.80;2.92;;;;;;;;;;5050918;28;20043;-72
2023/01/13 10:39:57;;;;;;;18.73;3.65;;;;;;;;;;5050540;28;20049;-72
2023/01/13 10:42:24;;;;;;;13.98;2.47;;;;;;;;;;5051856;28;20486;-71
2023/01/13 10:44:55;;;;;;;18.40;2.90;;;;;;;;;;5050186;28;20041;-72
2023/01/13 10:47:29;;;;;;;19.83;2.78;;;;;;;;;;5050472;28;20043;-72
2023/01/13 10:50:04;;;;;;;22.30;3.03;;;;;;;;;;5050276;28;20045;-71
2023/01/13 10:52:31;;;;;;;15.32;2.15;;;;;;;;;;5050483;28;20064;-72
2023/01/13 10:54:57;;;;;;;13.20;2.70;;;;;;;;;;5050205;28;20080;-72
2023/01/13 10:57:25;;;;;;;14.75;2.55;;;;;;;;;;5050186;28;20037;-71
2023/01/13 10:59:52;;;;;;;18.27;2.50;;;;;;;;;;5050101;28;20079;-71
2023/01/13 11:02:29;;;;;;;15.43;3.05;;;;;;;;;;5033667;28;20048;-71
2023/01/13 11:04:56;;;;;;;20.75;3.38;;;;;;;;;;5033188;28;20076;-71
2023/01/13 11:07:36;;;;;;;21.08;2.67;;;;;;;;;;5050249;28;20044;-71
2023/01/13 11:10:09;;;;;;;14.85;2.70;;;;;;;;;;5050145;28;20064;-71
2023/01/13 11:12:55;;;;;;;16.98;2.80;;;;;;;;;;5050307;28;20052;-71
2023/01/13 11:15:23;;;;;;;17.55;3.10;;;;;;;;;;5033566;28;20045;-71
2023/01/13 11:17:59;;;;;;;20.85;2.50;;;;;;;;;;5051127;28;20056;-72
2023/01/13 11:20:31;;;;;;;15.82;2.22;;;;;;;;;;5053653;28;20425;-71
2023/01/13 11:22:58;;;;;;;18.30;2.95;;;;;;;;;;5053811;28;20049;-71
2023/01/13 11:25:40;;;;;;;22.50;2.55;;;;;;;;;;5037225;28;20037;-71
2023/01/13 11:28:25;;;;;;;15.07;2.55;;;;;;;;;;5053392;28;20045;-72
2023/01/13 11:30:57;;;;;;;14.98;2.30;;;;;;;;;;5041982;28;20037;-71
2023/01/13 11:33:30;;;;;;;21.25;2.80;;;;;;;;;;5053881;28;20048;-71
2023/01/13 11:36:07;;;;;;;22.48;2.88;;;;;;;;;;5054843;28;20498;-72
2023/01/13 11:38:40;;;;;;;20.50;3.00;;;;;;;;;;5053804;28;20444;-72
2023/01/13 11:41:16;;;;;;;14.30;2.50;;;;;;;;;;5036474;28;20053;-71
2023/01/13 11:44:05;;;;;;;17.10;2.55;;;;;;;;;;5053507;28;20048;-72
2023/01/13 11:46:31;;;;;;;17.65;2.67;;;;;;;;;;5031618;28;20048;-72
2023/01/13 11:48:59;;;;;;;23.83;3.58;;;;;;;;;;5053005;28;20032;-72
2023/01/13 11:51:31;;;;;;;19.05;2.70;;;;;;;;;;5053661;28;20041;-72
2023/01/13 11:53:57;;;;;;;18.38;2.97;;;;;;;;;;5053051;28;20048;-71
2023/01/13 11:56:25;;;;;;;19.75;2.90;;;;;;;;;;5053252;28;20068;-71
2023/01/13 11:59:00;;;;;;;15.23;2.83;;;;;;;;;;5052805;28;20059;-72
2023/01/13 12:01:45;;;;;;;20.60;2.93;;;;;;;;;;5036262;28;20072;-72
2023/01/13 12:04:18;;;;;;;12.63;2.33;;;;;;;;;;5052935;28;20045;-72
2023/01/13 12:06:44;;;;;;;17.25;3.25;;;;;;;;;;5052998;28;20433;-71
2023/01/13 12:09:35;;;;;;;15.48;2.63;;;;;;;;;;5052797;28;20044;-71
2023/01/13 12:12:20;;;;;;;17.55;2.38;;;;;;;;;;5040377;28;20036;-71
2023/01/13 12:15:25;;;;;;;13.13;2.10;;;;;;;;;;5053080;28;20045;-72
2023/01/13 12:17:59;;;;;;;13.77;2.78;;;;;;;;;;5014981;28;20429;-72
2023/01/13 12:20:25;;;;;;;18.40;2.05;;;;;;;;;;5015610;28;20049;-71
2023/01/13 12:22:53;;;;;;;13.82;2.53;;;;;;;;;;5022771;28;20180;-72
2023/01/13 12:25:22;;;;;;;17.90;2.15;;;;;;;;;;5051981;28;20456;-71
2023/01/13 12:28:04;;;;;;;16.45;2.60;;;;;;;;;;5052786;28;20047;-72
2023/01/13 12:30:49;;;;;;;16.67;2.22;;;;;;;;;;5052475;28;20041;-72
2023/01/13 12:33:34;;;;;;;14.70;2.10;;;;;;;;;;5052025;28;20037;-71
2023/01/13 12:36:03;;;;;;;15.95;2.60;;;;;;;;;;5041443;28;20044;-72
2023/01/13 12:38:48;;;;;;;11.07;1.90;;;;;;;;;;5035911;28;20040;-72
2023/01/13 12:41:17;;;;;;;14.82;2.00;;;;;;;;;;5052396;28;20040;-71
2023/01/13 12:46:30;;;;;;;11.93;2.40;;;;;;;;;;5052540;28;20123;-72
2023/01/13 12:49:03;;;;;;;12.93;2.33;;;;;;;;;;5035221;28;20040;-72
2023/01/13 12:51:35;;;;;;;10.48;1.85;;;;;;;;;;5035825;28;20036;-72
2023/01/13 12:54:02;;;;;;;12.45;1.85;;;;;;;;;;5052169;28;20116;-72
2023/01/13 12:56:28;;;;;;;11.90;1.85;;;;;;;;;;5052285;28;20044;-72
2023/01/13 12:59:13;;;;;;;13.00;2.08;;;;;;;;;;5051630;28;20041;-72
2023/01/13 13:01:39;;;;;;;10.00;2.10;;;;;;;;;;5038444;28;20079;-72
2023/01/13 13:04:17;;;;;;;9.60;2.10;;;;;;;;;;5052985;28;20482;-72
2023/01/13 13:06:44;;;;;;;12.52;2.55;;;;;;;;;;5051979;28;20137;-72
2023/01/13 13:09:13;;;;;;;14.63;1.90;;;;;;;;;;5052844;28;20048;-72
2023/01/13 13:14:39;;;;;;;15.63;2.28;;;;;;;;;;5051983;28;20048;-72
2023/01/13 13:17:25;;;;;;;11.93;1.90;;;;;;;;;;5038780;28;20041;-72
2023/01/13 13:19:51;;;;;;;10.52;1.50;;;;;;;;;;5051742;28;20045;-72
2023/01/13 13:22:20;;;;;;;9.43;1.63;;;;;;;;;;5051635;28;20485;-72
2023/01/13 13:24:58;;;;;;;10.15;1.92;;;;;;;;;;5051686;28;20033;-72
2023/01/13 13:27:24;;;;;;;12.00;1.80;;;;;;;;;;5052032;28;20409;-72
2023/01/13 13:30:03;;;;;;;12.50;2.30;;;;;;;;;;5051982;28;20517;-72
2023/01/13 13:32:48;;;;;;;13.07;2.00;;;;;;;;;;5035264;28;20076;-72
2023/01/13 13:35:20;;;;;;;10.65;1.80;;;;;;;;;;5051336;28;20772;-71
2023/01/13 13:46:47;;;;;;;13.07;1.95;;;;;;;;;;5051015;28;20041;-72
2023/01/13 13:49:17;;;;;;;11.27;1.67;;;;;;;;;;5050661;28;20040;-71
2023/01/13 13:52:03;;;;;;;14.05;1.90;;;;;;;;;;5051267;28;20067;-72
2023/01/13 13:54:31;;;;;;;16.00;2.00;;;;;;;;;;5051355;28;20444;-72
2023/01/13 13:56:57;;;;;;;13.50;2.30;;;;;;;;;;5051547;28;20049;-72
2023/01/13 13:59:25;;;;;;;14.25;2.00;;;;;;;;;;5033935;28;20060;-72
2023/01/13 14:01:59;;;;;;;12.85;1.70;;;;;;;;;;5051027;28;20045;-72
2023/01/13 14:04:28;;;;;;;12.75;2.15;;;;;;;;;;5050594;28;20044;-72
2023/01/13 14:07:21;;;;;;;10.13;2.28;;;;;;;;;;5051349;28;20049;-72
2023/01/13 14:09:49;;;;;;;14.30;1.98;;;;;;;;;;5049309;28;20497;-72
2023/01/13 14:12:19;;;;;;;12.70;2.05;;;;;;;;;;5050800;28;20063;-72
2023/01/13 14:14:46;;;;;;;12.75;1.75;;;;;;;;;;5051148;28;20045;-72
2023/01/13 14:17:38;;;;;;;11.73;2.33;;;;;;;;;;5034696;28;20040;-72
2023/01/13 14:20:13;;;;;;;13.02;1.80;;;;;;;;;;5048648;28;20045;-72
2023/01/13 14:22:40;;;;;;;8.97;1.67;;;;;;;;;;5034582;28;20041;-72
2023/01/13 14:25:24;;;;;;;9.77;1.85;;;;;;;;;;5050749;28;20128;-73
2023/01/13 14:27:50;;;;;;;10.40;1.77;;;;;;;;;;5052190;28;20116;-73
2023/01/13 14:30:18;;;;;;;12.13;2.03;;;;;;;;;;5051629;28;20045;-73
2023/01/13 14:32:44;;;;;;;14.63;1.92;;;;;;;;;;5052736;28;20044;-73
2023/01/13 14:35:15;;;;;;;12.82;2.10;;;;;;;;;;5051723;28;20037;-72
2023/01/13 14:37:42;;;;;;;12.48;1.80;;;;;;;;;;5050836;28;20124;-72
2023/01/13 14:40:26;;;;;;;8.35;1.70;;;;;;;;;;5050131;28;20045;-72
2023/01/13 14:43:16;;;;;;;8.48;1.75;;;;;;;;;;5050773;28;20049;-72
2023/01/13 14:45:53;;;;;;;12.00;1.92;;;;;;;;;;5032797;28;20049;-72
2023/01/13 14:48:20;;;;;;;7.38;1.85;;;;;;;;;;5050209;28;20044;-72
2023/01/13 14:50:47;;;;;;;12.18;1.63;;;;;;;;;;5050693;28;20500;-72
2023/01/13 14:53:27;;;;;;;10.15;1.90;;;;;;;;;;5050494;28;20052;-72
2023/01/13 14:55:53;;;;;;;12.73;1.88;;;;;;;;;;5053975;28;20045;-72
2023/01/13 14:58:22;;;;;;;8.88;1.60;;;;;;;;;;5054239;28;20127;-71
2023/01/13 15:00:49;;;;;;;13.85;2.35;;;;;;;;;;5054510;28;20052;-72
2023/01/13 15:03:16;;;;;;;11.70;1.42;;;;;;;;;;5053935;28;20072;-72
2023/01/13 15:05:48;;;;;;;15.32;1.95;;;;;;;;;;5054127;28;20061;-71
2023/01/13 15:08:16;;;;;;;11.60;1.77;;;;;;;;;;5054178;28;20041;-72
2023/01/13 15:10:47;;;;;;;10.32;1.77;;;;;;;;;;5054511;28;20040;-72
2023/01/13 15:13:25;;;;;;;14.30;2.10;;;;;;;;;;5053696;28;20036;-72
2023/01/13 15:15:52;;;;;;;11.18;1.73;;;;;;;;;;5038157;28;20131;-72
2023/01/13 15:18:18;;;;;;;12.95;1.80;;;;;;;;;;5053991;28;20095;-72
2023/01/13 15:20:44;;;;;;;11.88;2.03;;;;;;;;;;5054068;28;20040;-72
2023/01/13 15:23:11;;;;;;;11.30;2.17;;;;;;;;;;5037352;28;20044;-72
2023/01/13 15:25:41;;;;;;;12.10;2.00;;;;;;;;;;5054028;28;20041;-72
2023/01/13 15:28:14;;;;;;;12.02;2.03;;;;;;;;;;5037276;28;20041;-72
2023/01/13 15:30:40;;;;;;;11.90;1.88;;;;;;;;;;5037290;28;20032;-72
2023/01/13 15:33:06;;;;;;;11.85;2.10;;;;;;;;;;5037222;28;20067;-72
2023/01/13 15:35:33;;;;;;;12.00;1.95;;;;;;;;;;5036876;28;20048;-72
2023/01/13 15:37:59;;;;;;;9.75;1.60;;;;;;;;;;5054249;28;20505;-72
2023/01/13 15:40:28;;;;;;;10.88;2.10;;;;;;;;;;5036984;28;20501;-72
2023/01/13 15:48:31;;;;;;;8.88;1.65;;;;;;;;;;5023692;28;20108;-72
2023/01/13 15:50:58;;;;;;;12.45;2.03;;;;;;;;;;5039454;28;20115;-72